Time;durP1;ratioP1;P1;durP2;ratioP2;P2;SDS_P1;SDS_P2;PMS_P1;PMS_P2;Temp;Humidity;BMP_temperature;BMP_pressure;BME280_temperature;BME280_humidity;BME280_pressure;Samples;Min_cycle;Max_cycle;Signal;HPM_P1;HPM_P2
2023/04/23 00:01:15;;;;;;;1.95;1.70;;;10.30;99.90;;;;;;5053820;28;20195;-79
2023/04/23 00:03:44;;;;;;;1.35;1.35;;;10.30;99.90;;;;;;5054067;28;20257;-79
2023/04/23 00:06:11;;;;;;;2.78;1.88;;;10.20;99.90;;;;;;5038554;28;20196;-79
2023/04/23 00:08:39;;;;;;;1.40;1.30;;;10.20;99.90;;;;;;5054011;28;20665;-79
2023/04/23 00:11:08;;;;;;;1.08;0.60;;;10.30;99.90;;;;;;5054250;28;20201;-79
2023/04/23 00:13:36;;;;;;;3.35;3.20;;;10.30;99.90;;;;;;5056816;28;20210;-79
2023/04/23 00:16:04;;;;;;;14.48;5.97;;;10.30;99.90;;;;;;5056710;28;21066;-79
2023/04/23 00:18:30;;;;;;;6.63;4.00;;;10.30;99.90;;;;;;5057101;28;20191;-79
2023/04/23 00:20:57;;;;;;;3.28;1.98;;;10.20;99.90;;;;;;5056633;28;20681;-79
2023/04/23 00:23:24;;;;;;;0.52;0.52;;;10.20;99.90;;;;;;5056843;28;20221;-79
2023/04/23 00:25:51;;;;;;;2.45;2.35;;;10.20;99.90;;;;;;5056910;28;20686;-79
2023/04/23 00:28:19;;;;;;;3.90;3.10;;;10.20;99.90;;;;;;5057119;28;20216;-79
2023/04/23 00:30:46;;;;;;;1.83;0.70;;;10.20;99.90;;;;;;5056612;28;20593;-79
2023/04/23 00:33:13;;;;;;;0.80;0.80;;;10.20;99.90;;;;;;5056745;28;20586;-79
2023/04/23 00:35:40;;;;;;;0.60;0.57;;;10.10;99.90;;;;;;5057010;28;20270;-79
2023/04/23 00:38:07;;;;;;;2.05;1.95;;;10.10;99.90;;;;;;5055876;28;20665;-79
2023/04/23 00:40:33;;;;;;;0.75;0.75;;;10.20;99.90;;;;;;5056642;28;20194;-79
2023/04/23 00:43:00;;;;;;;0.80;0.77;;;10.20;99.90;;;;;;5056025;28;20732;-79
2023/04/23 00:45:29;;;;;;;0.50;0.50;;;10.10;99.90;;;;;;5113845;22;20214;-80
2023/04/23 00:47:56;;;;;;;3.42;2.25;;;10.10;99.90;;;;;;5070021;28;20626;-80
2023/04/23 00:50:23;;;;;;;3.20;2.97;;;10.10;99.90;;;;;;5086913;28;20216;-81
2023/04/23 00:52:50;;;;;;;4.82;4.18;;;10.10;99.90;;;;;;5086357;28;20567;-80
2023/04/23 00:55:19;;;;;;;0.50;0.40;;;10.10;99.90;;;;;;5083348;28;20292;-78
2023/04/23 00:57:46;;;;;;;0.60;0.50;;;10.10;99.90;;;;;;5082972;28;20651;-77
2023/04/23 01:00:14;;;;;;;3.08;2.85;;;10.10;99.90;;;;;;5087147;28;20208;-79
2023/04/23 01:02:43;;;;;;;1.83;1.77;;;10.10;99.90;;;;;;5086954;28;20244;-79
2023/04/23 01:05:11;;;;;;;0.50;0.40;;;10.10;99.90;;;;;;5083212;28;20217;-80
2023/04/23 01:07:38;;;;;;;1.35;1.15;;;10.00;99.90;;;;;;5082916;28;20201;-79
2023/04/23 01:10:06;;;;;;;4.10;1.13;;;10.00;99.90;;;;;;5085384;28;20206;-79
2023/04/23 01:12:34;;;;;;;1.08;0.98;;;10.00;99.90;;;;;;5086720;28;20196;-80
2023/04/23 01:15:01;;;;;;;0.60;0.60;;;10.00;99.90;;;;;;5084051;28;20704;-79
2023/04/23 01:17:27;;;;;;;4.53;1.63;;;10.00;99.90;;;;;;5083016;28;20198;-80
2023/04/23 01:19:56;;;;;;;0.50;0.40;;;10.00;99.90;;;;;;5083964;28;20293;-80
2023/04/23 01:22:24;;;;;;;0.50;0.40;;;10.00;99.90;;;;;;5086273;28;20197;-77
2023/04/23 01:24:52;;;;;;;2.85;2.63;;;10.00;99.90;;;;;;5087734;28;20213;-80
2023/04/23 01:27:21;;;;;;;0.98;0.93;;;10.00;99.90;;;;;;5085472;28;20198;-79
2023/04/23 01:29:49;;;;;;;2.83;2.63;;;10.00;99.90;;;;;;5089675;28;20228;-76
2023/04/23 01:32:16;;;;;;;0.50;0.40;;;10.00;99.90;;;;;;5097092;28;20205;-80
2023/04/23 01:34:46;;;;;;;2.67;1.30;;;9.90;99.90;;;;;;5105451;28;20202;-78
2023/04/23 01:37:13;;;;;;;0.50;0.40;;;9.90;99.90;;;;;;5108562;28;20180;-81
2023/04/23 01:39:41;;;;;;;2.33;2.00;;;9.90;99.90;;;;;;5095012;28;20218;-80
2023/04/23 01:42:08;;;;;;;2.25;2.15;;;9.80;99.90;;;;;;5084014;28;20248;-80
2023/04/23 01:44:35;;;;;;;1.90;1.80;;;9.80;99.90;;;;;;5083289;28;20221;-79
2023/04/23 01:47:02;;;;;;;0.70;0.70;;;9.80;99.90;;;;;;5084374;28;20598;-80
2023/04/23 01:49:29;;;;;;;0.50;0.50;;;9.70;99.90;;;;;;5086738;28;20196;-80
2023/04/23 01:51:56;;;;;;;0.50;0.40;;;9.70;99.90;;;;;;5085910;28;20296;-81
2023/04/23 01:54:23;;;;;;;0.50;0.40;;;9.60;99.90;;;;;;5083105;28;20187;-80
2023/04/23 01:56:53;;;;;;;0.50;0.40;;;9.60;99.90;;;;;;5083724;28;20225;-79
2023/04/23 01:59:21;;;;;;;0.50;0.40;;;9.50;99.90;;;;;;5086680;28;20706;-79
2023/04/23 02:01:48;;;;;;;0.50;0.40;;;9.50;99.90;;;;;;5087235;28;20626;-80
2023/04/23 02:04:15;;;;;;;3.33;3.00;;;9.40;99.90;;;;;;5084220;28;20217;-80
2023/04/23 02:06:44;;;;;;;2.55;2.45;;;9.40;99.90;;;;;;5084550;28;20218;-76
2023/04/23 02:09:11;;;;;;;0.82;0.82;;;9.40;99.90;;;;;;5087111;28;20199;-80
2023/04/23 02:11:38;;;;;;;1.10;1.10;;;9.30;99.90;;;;;;5088830;28;20227;-80
2023/04/23 02:14:07;;;;;;;0.50;0.40;;;9.20;99.90;;;;;;5085810;28;20189;-79
2023/04/23 02:16:33;;;;;;;0.50;0.40;;;9.20;99.90;;;;;;5086212;28;20218;-80
2023/04/23 02:19:01;;;;;;;3.30;3.08;;;9.20;99.90;;;;;;5086570;28;20288;-79
2023/04/23 02:21:28;;;;;;;1.40;1.30;;;9.20;99.90;;;;;;5088298;28;20193;-80
2023/04/23 02:23:55;;;;;;;0.50;0.40;;;9.20;99.90;;;;;;5082348;28;20209;-80
2023/04/23 02:26:23;;;;;;;0.50;0.40;;;9.10;99.90;;;;;;5085158;28;20217;-79
2023/04/23 02:28:50;;;;;;;1.70;1.25;;;9.10;99.90;;;;;;5085105;28;20200;-80
2023/04/23 02:31:19;;;;;;;0.60;0.60;;;9.10;99.90;;;;;;5085498;28;20200;-79
2023/04/23 02:33:46;;;;;;;1.35;1.30;;;9.00;99.90;;;;;;5085119;28;20209;-80
2023/04/23 02:36:13;;;;;;;3.70;2.60;;;9.10;99.90;;;;;;5084784;28;20218;-80
2023/04/23 02:38:41;;;;;;;0.90;0.90;;;9.00;99.90;;;;;;5084872;28;20197;-80
2023/04/23 02:41:08;;;;;;;3.08;2.58;;;9.00;99.90;;;;;;5084742;28;20205;-80
2023/04/23 02:43:34;;;;;;;0.88;0.88;;;9.00;99.90;;;;;;5079091;28;20194;-80
2023/04/23 02:46:06;;;;;;;1.08;1.08;;;9.00;99.90;;;;;;5073197;28;20232;-79
2023/04/23 02:48:39;;;;;;;1.58;1.40;;;8.90;99.90;;;;;;5084392;28;20222;-79
2023/04/23 02:51:06;;;;;;;3.22;1.15;;;8.90;99.90;;;;;;5082864;28;20201;-79
2023/04/23 02:53:33;;;;;;;4.75;2.80;;;8.90;99.90;;;;;;5081279;28;20667;-78
2023/04/23 02:56:00;;;;;;;0.50;0.40;;;8.80;99.90;;;;;;5081652;28;20217;-79
2023/04/23 02:58:27;;;;;;;0.68;0.68;;;8.80;99.90;;;;;;5084264;28;20246;-80
2023/04/23 03:00:54;;;;;;;0.50;0.40;;;8.90;99.90;;;;;;5084318;28;20569;-77
2023/04/23 03:03:25;;;;;;;0.90;0.90;;;8.80;99.90;;;;;;5081090;28;20194;-79
2023/04/23 03:05:53;;;;;;;1.08;1.08;;;8.90;99.90;;;;;;5080815;28;20248;-79
2023/04/23 03:08:20;;;;;;;0.50;0.40;;;8.90;99.90;;;;;;5072569;28;20206;-80
2023/04/23 03:10:47;;;;;;;0.50;0.40;;;8.90;99.90;;;;;;5081221;28;20197;-80
2023/04/23 03:13:14;;;;;;;2.75;1.10;;;9.00;99.90;;;;;;5083204;28;20202;-77
2023/04/23 03:15:41;;;;;;;2.75;2.50;;;9.00;99.90;;;;;;5084256;28;20209;-79
2023/04/23 03:18:08;;;;;;;0.50;0.50;;;9.10;99.90;;;;;;5081833;28;20201;-79
2023/04/23 03:20:34;;;;;;;1.77;1.70;;;9.10;99.90;;;;;;5080845;28;20198;-80
2023/04/23 03:23:05;;;;;;;3.35;2.65;;;9.10;99.90;;;;;;5081686;28;20204;-79
2023/04/23 03:25:32;;;;;;;4.28;3.90;;;9.10;99.90;;;;;;5073690;28;20237;-77
2023/04/23 03:27:58;;;;;;;5.75;5.25;;;9.10;99.90;;;;;;5057274;28;20202;-80
2023/04/23 03:30:26;;;;;;;3.20;3.00;;;9.10;99.90;;;;;;5083967;28;20203;-79
2023/04/23 03:32:53;;;;;;;0.50;0.50;;;9.10;99.90;;;;;;5084658;28;20572;-76
2023/04/23 03:35:20;;;;;;;0.70;0.70;;;9.00;99.90;;;;;;5085169;28;20300;-80
2023/04/23 03:37:47;;;;;;;1.85;1.52;;;9.10;99.90;;;;;;5080009;28;20251;-78
2023/04/23 03:40:15;;;;;;;3.00;2.58;;;9.10;99.90;;;;;;5082876;28;20597;-80
2023/04/23 03:42:42;;;;;;;3.20;1.77;;;9.20;99.90;;;;;;5084070;28;20204;-80
2023/04/23 03:45:10;;;;;;;0.50;0.40;;;9.20;99.90;;;;;;5081424;28;20228;-80
2023/04/23 03:47:36;;;;;;;3.78;3.50;;;9.30;99.90;;;;;;5083859;28;20543;-80
2023/04/23 03:50:04;;;;;;;3.40;2.25;;;9.30;99.90;;;;;;5085305;28;20204;-78
2023/04/23 03:52:30;;;;;;;7.97;5.15;;;9.40;99.90;;;;;;5088429;28;20205;-79
2023/04/23 03:54:57;;;;;;;0.88;0.88;;;9.40;99.90;;;;;;5087671;28;20193;-77
2023/04/23 03:57:25;;;;;;;1.02;1.02;;;9.40;99.90;;;;;;5084754;28;20492;-79
2023/04/23 03:59:52;;;;;;;1.95;1.40;;;9.40;99.90;;;;;;5084322;28;20193;-79
2023/04/23 04:02:19;;;;;;;2.25;1.88;;;9.50;99.90;;;;;;5087377;28;20190;-80
2023/04/23 04:04:48;;;;;;;5.38;4.97;;;9.50;99.90;;;;;;5087266;28;20215;-79
2023/04/23 04:07:15;;;;;;;0.50;0.40;;;9.40;99.90;;;;;;5085066;28;20204;-79
2023/04/23 04:09:41;;;;;;;0.50;0.40;;;9.50;99.90;;;;;;5084560;28;20692;-80
2023/04/23 04:12:08;;;;;;;0.75;0.70;;;9.40;99.90;;;;;;5086685;28;20202;-79
2023/04/23 04:14:36;;;;;;;1.30;1.30;;;9.40;99.90;;;;;;5097273;28;20190;-79
2023/04/23 04:17:03;;;;;;;1.40;1.40;;;9.40;99.90;;;;;;5095298;28;20421;-80
2023/04/23 04:19:30;;;;;;;2.75;1.90;;;9.40;99.90;;;;;;5094885;28;20202;-82
2023/04/23 04:21:57;;;;;;;3.85;3.70;;;9.40;99.90;;;;;;5093093;28;20209;-81
2023/04/23 04:24:24;;;;;;;1.00;1.00;;;9.50;99.90;;;;;;5093943;28;20214;-79
2023/04/23 04:26:52;;;;;;;2.00;1.83;;;9.40;99.90;;;;;;5090970;28;20214;-81
2023/04/23 04:29:20;;;;;;;0.73;0.60;;;9.40;99.90;;;;;;5086873;28;20656;-80
2023/04/23 04:31:48;;;;;;;2.30;2.20;;;9.50;99.90;;;;;;5088615;28;20284;-80
2023/04/23 04:34:16;;;;;;;0.63;0.63;;;9.40;99.90;;;;;;5085967;28;20247;-81
2023/04/23 04:36:43;;;;;;;0.80;0.80;;;9.40;99.90;;;;;;5085331;28;20214;-77
2023/04/23 04:39:12;;;;;;;8.88;6.20;;;9.50;99.90;;;;;;5091295;28;20204;-81
2023/04/23 04:41:39;;;;;;;3.00;2.25;;;9.50;99.90;;;;;;5092639;28;20255;-81
2023/04/23 04:44:07;;;;;;;1.73;1.60;;;9.50;99.90;;;;;;5091744;28;20219;-80
2023/04/23 04:46:39;;;;;;;11.88;3.17;;;9.60;99.90;;;;;;5084979;28;20636;-79
2023/04/23 04:49:07;;;;;;;0.50;0.50;;;9.60;99.90;;;;;;5091872;28;20193;-81
2023/04/23 04:51:34;;;;;;;4.05;3.70;;;9.60;99.90;;;;;;5090667;28;20194;-80
2023/04/23 04:54:01;;;;;;;1.33;1.25;;;9.60;99.90;;;;;;5097446;28;20193;-78
2023/04/23 04:56:28;;;;;;;1.35;1.35;;;9.60;99.90;;;;;;5085450;28;20210;-81
2023/04/23 04:58:55;;;;;;;4.50;3.63;;;9.60;99.90;;;;;;5082766;28;20213;-81
2023/04/23 05:01:23;;;;;;;1.95;1.67;;;9.60;99.90;;;;;;5086823;28;20223;-79
2023/04/23 05:03:50;;;;;;;1.90;0.75;;;9.70;99.90;;;;;;5087562;28;20205;-81
2023/04/23 05:06:18;;;;;;;3.03;2.92;;;9.70;99.90;;;;;;5084982;28;20221;-80
2023/04/23 05:08:47;;;;;;;0.60;0.60;;;9.80;99.90;;;;;;5083939;28;20189;-79
2023/04/23 05:11:14;;;;;;;0.50;0.50;;;9.80;99.90;;;;;;5085700;28;20256;-80
2023/04/23 05:13:40;;;;;;;0.50;0.40;;;9.90;99.90;;;;;;5087435;28;20216;-80
2023/04/23 05:16:08;;;;;;;3.42;3.13;;;10.00;99.90;;;;;;5086160;28;20266;-79
2023/04/23 05:18:35;;;;;;;1.55;0.88;;;10.10;99.90;;;;;;5083911;28;20194;-81
2023/04/23 05:21:02;;;;;;;1.88;1.23;;;10.20;99.90;;;;;;5083600;28;20546;-77
2023/04/23 05:23:30;;;;;;;4.88;4.13;;;10.30;99.90;;;;;;5087334;28;20200;-80
2023/04/23 05:25:57;;;;;;;1.13;1.13;;;10.50;99.90;;;;;;5087100;28;20221;-82
2023/04/23 05:28:24;;;;;;;1.90;1.80;;;10.80;99.90;;;;;;5084150;28;20663;-79
2023/04/23 05:30:51;;;;;;;0.50;0.50;;;10.90;99.90;;;;;;5083606;28;20228;-78
2023/04/23 05:33:18;;;;;;;0.50;0.50;;;11.10;99.90;;;;;;5085936;28;20205;-79
2023/04/23 05:35:45;;;;;;;1.35;0.73;;;11.20;99.90;;;;;;5087055;28;20466;-79
2023/04/23 05:38:12;;;;;;;2.10;1.90;;;11.30;99.90;;;;;;5084892;28;20193;-80
2023/04/23 05:40:40;;;;;;;3.53;1.77;;;11.40;99.90;;;;;;5083843;28;20740;-79
2023/04/23 05:43:07;;;;;;;1.83;1.60;;;11.60;99.90;;;;;;5083669;28;20205;-79
2023/04/23 05:45:33;;;;;;;0.50;0.40;;;11.70;99.90;;;;;;5086494;28;20837;-79
2023/04/23 05:48:00;;;;;;;0.60;0.60;;;11.70;99.90;;;;;;5086322;28;20439;-80
2023/04/23 05:50:27;;;;;;;0.50;0.40;;;11.80;99.90;;;;;;5083194;28;20789;-80
2023/04/23 05:52:54;;;;;;;4.27;2.50;;;11.80;99.90;;;;;;5083008;28;20451;-76
2023/04/23 05:55:22;;;;;;;0.50;0.40;;;11.80;99.90;;;;;;5085187;28;20468;-81
2023/04/23 05:57:50;;;;;;;1.03;0.70;;;11.80;99.90;;;;;;5086915;28;20448;-81
2023/04/23 06:00:18;;;;;;;0.52;0.50;;;11.80;99.90;;;;;;5084264;28;20439;-80
2023/04/23 06:02:45;;;;;;;2.83;2.63;;;11.80;99.90;;;;;;5083302;28;20202;-81
2023/04/23 06:05:11;;;;;;;0.50;0.40;;;11.90;99.90;;;;;;5083810;28;20547;-80
2023/04/23 06:07:40;;;;;;;0.80;0.80;;;11.90;99.90;;;;;;5086711;28;20443;-81
2023/04/23 06:10:08;;;;;;;0.70;0.67;;;11.90;99.90;;;;;;5085464;28;20447;-79
2023/04/23 06:12:37;;;;;;;5.30;2.03;;;11.90;99.90;;;;;;5082817;28;20444;-81
2023/04/23 06:15:07;;;;;;;0.50;0.40;;;11.90;99.90;;;;;;5100286;28;20452;-83
2023/04/23 06:17:34;;;;;;;1.03;1.03;;;11.90;99.90;;;;;;5092895;28;20436;-82
2023/04/23 06:20:00;;;;;;;2.73;2.53;;;11.80;99.90;;;;;;5087743;28;20538;-81
2023/04/23 06:22:27;;;;;;;0.60;0.60;;;11.80;99.90;;;;;;5088563;28;20427;-81
2023/04/23 06:24:54;;;;;;;0.77;0.77;;;11.80;99.90;;;;;;5087650;28;20483;-81
2023/04/23 06:27:21;;;;;;;1.03;0.80;;;11.70;99.90;;;;;;5085115;28;20449;-80
2023/04/23 06:29:47;;;;;;;0.77;0.77;;;11.80;99.90;;;;;;5082927;28;20527;-80
2023/04/23 06:32:15;;;;;;;0.50;0.40;;;11.90;99.90;;;;;;5084109;28;20450;-82
2023/04/23 06:34:42;;;;;;;1.20;0.85;;;12.00;99.90;;;;;;5086344;28;20193;-80
2023/04/23 06:37:09;;;;;;;3.60;2.87;;;12.10;99.90;;;;;;5085632;28;20211;-80
2023/04/23 06:39:36;;;;;;;3.70;0.97;;;12.20;99.90;;;;;;5082464;28;20531;-79
2023/04/23 06:42:02;;;;;;;0.50;0.40;;;12.30;99.90;;;;;;5082305;28;20451;-80
2023/04/23 06:44:29;;;;;;;0.50;0.40;;;12.40;99.90;;;;;;5084787;28;20431;-81
2023/04/23 06:46:56;;;;;;;2.50;2.30;;;12.50;99.90;;;;;;5069625;22;20493;-81
2023/04/23 06:49:24;;;;;;;2.60;2.43;;;12.60;99.90;;;;;;5055787;28;20513;-80
2023/04/23 06:51:51;;;;;;;0.60;0.60;;;12.80;99.90;;;;;;5065319;28;20440;-80
2023/04/23 06:54:18;;;;;;;0.80;0.80;;;12.90;99.90;;;;;;5057541;28;20445;-81
2023/04/23 06:56:44;;;;;;;1.13;0.70;;;12.90;99.90;;;;;;5065723;28;20460;-81
2023/04/23 06:59:11;;;;;;;0.63;0.60;;;13.10;99.90;;;;;;5073795;28;20450;-80
2023/04/23 07:01:38;;;;;;;0.50;0.37;;;13.10;99.90;;;;;;5073352;28;20445;-80
2023/04/23 07:04:05;;;;;;;0.70;0.70;;;13.20;99.90;;;;;;5073672;28;20443;-80
2023/04/23 07:06:34;;;;;;;1.43;1.27;;;13.30;99.90;;;;;;5073858;28;20843;-80
2023/04/23 07:09:01;;;;;;;1.50;1.40;;;13.50;99.90;;;;;;5073401;28;20448;-80
2023/04/23 07:11:29;;;;;;;1.37;1.27;;;13.60;99.90;;;;;;5073383;28;20450;-80
2023/04/23 07:13:56;;;;;;;1.80;1.70;;;13.70;99.90;;;;;;5073423;28;21035;-80
2023/04/23 07:16:24;;;;;;;1.90;1.80;;;13.90;99.90;;;;;;5073132;28;21005;-81
2023/04/23 07:18:51;;;;;;;1.07;0.97;;;14.30;99.90;;;;;;5073422;28;20448;-79
2023/04/23 07:21:18;;;;;;;1.57;1.47;;;15.40;99.90;;;;;;5072376;28;20444;-80
2023/04/23 07:23:46;;;;;;;0.63;0.63;;;17.30;99.90;;;;;;5074059;28;20437;-77
2023/04/23 07:26:12;;;;;;;2.80;2.60;;;18.80;99.90;;;;;;5073037;28;20483;-80
2023/04/23 07:28:39;;;;;;;1.43;1.27;;;19.60;99.90;;;;;;5073489;28;20472;-80
2023/04/23 07:31:06;;;;;;;1.23;1.10;;;20.20;99.90;;;;;;5073920;28;20448;-80
2023/04/23 07:33:33;;;;;;;4.10;3.70;;;20.60;99.90;;;;;;5073577;28;20452;-79
2023/04/23 07:36:00;;;;;;;2.73;2.53;;;20.50;99.90;;;;;;5073188;28;20478;-81
2023/04/23 07:38:27;;;;;;;1.63;1.30;;;20.80;99.90;;;;;;5073495;28;20448;-81
2023/04/23 07:40:55;;;;;;;0.63;0.60;;;21.10;99.90;;;;;;5073797;28;20458;-81
2023/04/23 07:43:22;;;;;;;1.10;0.60;;;21.70;99.90;;;;;;5073055;28;20444;-81
2023/04/23 07:45:48;;;;;;;0.70;0.70;;;22.30;99.90;;;;;;5072691;28;20824;-79
2023/04/23 07:48:15;;;;;;;0.50;0.40;;;22.90;99.90;;;;;;5073304;28;20531;-80
2023/04/23 07:50:42;;;;;;;0.80;0.80;;;23.30;97.40;;;;;;5073378;28;20523;-78
2023/04/23 07:53:09;;;;;;;1.73;1.23;;;22.70;96.30;;;;;;5073781;28;20440;-81
2023/04/23 07:55:36;;;;;;;1.70;1.03;;;22.20;97.40;;;;;;5073364;28;20447;-79
2023/04/23 07:58:04;;;;;;;0.50;0.50;;;22.20;98.50;;;;;;5073026;28;20451;-80
2023/04/23 08:00:31;;;;;;;2.10;0.93;;;22.60;97.50;;;;;;5074292;28;20472;-80
2023/04/23 08:02:58;;;;;;;0.77;0.60;;;22.70;96.40;;;;;;5074247;28;20436;-80
2023/04/23 08:05:25;;;;;;;2.27;2.07;;;22.80;95.00;;;;;;5073813;28;20475;-80
2023/04/23 08:07:52;;;;;;;2.80;2.20;;;21.90;94.40;;;;;;5072842;28;20482;-80
2023/04/23 08:10:19;;;;;;;1.10;0.50;;;21.60;96.60;;;;;;5072893;28;20447;-80
2023/04/23 08:12:46;;;;;;;1.33;1.27;;;21.40;98.30;;;;;;5073450;28;20937;-80
2023/04/23 08:15:14;;;;;;;1.40;1.30;;;20.90;99.90;;;;;;5072800;28;20824;-79
2023/04/23 08:17:41;;;;;;;2.70;1.20;;;21.20;99.90;;;;;;5073272;28;20959;-77
2023/04/23 08:20:08;;;;;;;1.60;1.23;;;21.50;99.90;;;;;;5073185;28;20835;-79
2023/04/23 08:22:35;;;;;;;2.17;1.97;;;21.40;99.90;;;;;;5072987;28;20440;-79
2023/04/23 08:25:03;;;;;;;2.00;1.90;;;21.10;99.90;;;;;;5073541;28;20440;-80
2023/04/23 08:27:30;;;;;;;2.50;1.10;;;21.40;99.90;;;;;;5086369;28;20631;-80
2023/04/23 08:29:57;;;;;;;3.53;1.33;;;22.20;99.60;;;;;;5082564;28;20815;-80
2023/04/23 08:32:25;;;;;;;2.13;1.40;;;21.90;97.30;;;;;;5077653;28;20947;-80
2023/04/23 08:34:52;;;;;;;0.67;0.57;;;22.00;98.30;;;;;;5076396;28;20444;-80
2023/04/23 08:37:18;;;;;;;1.13;1.03;;;23.00;98.80;;;;;;5076454;28;20455;-80
2023/04/23 08:39:45;;;;;;;1.30;1.17;;;23.30;93.30;;;;;;5075953;28;20440;-81
2023/04/23 08:42:33;;;;;;;0.60;0.50;;;22.90;92.60;;;;;;5075986;28;20443;-80
2023/04/23 08:45:00;;;;;;;0.60;0.60;;;23.40;92.70;;;;;;5065578;28;20450;-80
2023/04/23 08:47:30;;;;;;;1.00;0.93;;;23.30;89.70;;;;;;5075759;28;20507;-80
2023/04/23 08:49:59;;;;;;;0.50;0.33;;;23.20;90.20;;;;;;5089005;28;20448;-80
2023/04/23 08:52:29;;;;;;;1.33;1.23;;;23.70;90.80;;;;;;5097768;28;20508;-80
2023/04/23 08:55:00;;;;;;;1.30;1.20;;;23.70;89.20;;;;;;5098063;28;20511;-79
2023/04/23 08:57:27;;;;;;;1.33;1.00;;;24.10;87.10;;;;;;5095405;28;20476;-80
2023/04/23 08:59:55;;;;;;;0.50;0.40;;;24.20;85.90;;;;;;5078564;28;20482;-80
2023/04/23 09:02:23;;;;;;;0.50;0.40;;;24.20;84.40;;;;;;5077608;28;20539;-79
2023/04/23 09:04:53;;;;;;;2.73;1.53;;;23.50;84.20;;;;;;5077285;28;20451;-79
2023/04/23 09:07:20;;;;;;;0.50;0.40;;;22.70;87.60;;;;;;5077693;28;21006;-80
2023/04/23 09:09:47;;;;;;;0.60;0.53;;;22.90;86.30;;;;;;5078077;28;20433;-81
2023/04/23 09:12:15;;;;;;;0.70;0.60;;;23.20;88.30;;;;;;5077574;28;20444;-79
2023/04/23 09:14:42;;;;;;;1.90;1.17;;;22.50;87.30;;;;;;5061407;28;20475;-80
2023/04/23 09:17:08;;;;;;;0.50;0.30;;;21.90;88.80;;;;;;5077971;28;20475;-80
2023/04/23 09:19:37;;;;;;;0.57;0.50;;;21.90;90.00;;;;;;5078020;28;21394;-79
2023/04/23 09:22:08;;;;;;;1.13;1.03;;;21.20;90.60;;;;;;5078665;28;20803;-80
2023/04/23 09:24:35;;;;;;;22.77;1.43;;;20.50;92.50;;;;;;5077490;28;20448;-80
2023/04/23 09:27:02;;;;;;;0.80;0.80;;;20.20;96.80;;;;;;5075607;28;20491;-80
2023/04/23 09:29:30;;;;;;;0.90;0.50;;;20.10;98.10;;;;;;5075089;28;20513;-79
2023/04/23 09:32:08;;;;;;;1.80;1.07;;;19.80;99.30;;;;;;5075586;28;20627;-80
2023/04/23 09:34:36;;;;;;;0.97;0.60;;;19.40;99.90;;;;;;5075740;28;20531;-80
2023/04/23 09:37:09;;;;;;;0.93;0.80;;;19.00;99.90;;;;;;5075793;28;20467;-79
2023/04/23 09:39:36;;;;;;;0.97;0.60;;;18.80;99.90;;;;;;5075285;28;20793;-79
2023/04/23 09:42:07;;;;;;;2.03;1.57;;;18.60;99.90;;;;;;5075353;28;20444;-80
2023/04/23 09:44:34;;;;;;;4.37;2.30;;;18.60;99.90;;;;;;5074515;28;20444;-80
2023/04/23 09:47:08;;;;;;;1.10;0.60;;;18.70;99.90;;;;;;5075084;28;20495;-80
2023/04/23 09:49:45;;;;;;;0.60;0.53;;;18.90;99.90;;;;;;5074824;28;21023;-80
2023/04/23 09:52:13;;;;;;;0.60;0.60;;;19.70;99.90;;;;;;5075660;28;20462;-80
2023/04/23 09:54:40;;;;;;;1.07;0.97;;;21.10;99.90;;;;;;5075651;28;20475;-80
2023/04/23 09:57:08;;;;;;;0.73;0.70;;;22.20;98.40;;;;;;5075350;28;20517;-80
2023/04/23 09:59:36;;;;;;;0.50;0.40;;;23.10;95.00;;;;;;5074900;28;20440;-79
2023/04/23 10:02:04;;;;;;;0.50;0.30;;;23.90;91.30;;;;;;5075428;28;20440;-81
2023/04/23 10:04:33;;;;;;;0.60;0.40;;;24.10;88.20;;;;;;5074667;28;20475;-80
2023/04/23 10:07:02;;;;;;;1.50;0.90;;;24.00;84.50;;;;;;5073552;28;20859;-78
2023/04/23 10:09:31;;;;;;;0.63;0.60;;;23.90;81.30;;;;;;5074014;28;20505;-78
2023/04/23 10:12:00;;;;;;;0.50;0.30;;;23.00;83.70;;;;;;5074275;28;20460;-80
2023/04/23 10:14:28;;;;;;;0.80;0.77;;;22.70;89.40;;;;;;5073566;28;20531;-79
2023/04/23 10:16:58;;;;;;;0.80;0.73;;;21.90;91.00;;;;;;5073456;28;20456;-79
2023/04/23 10:19:26;;;;;;;0.70;0.70;;;21.10;93.10;;;;;;5072940;28;20935;-79
2023/04/23 10:21:56;;;;;;;0.50;0.30;;;20.10;98.50;;;;;;5073956;28;20574;-80
2023/04/23 10:24:24;;;;;;;0.60;0.50;;;19.80;99.90;;;;;;5073279;28;20445;-79
2023/04/23 10:26:54;;;;;;;0.60;0.50;;;20.00;99.90;;;;;;5074379;28;20886;-79
2023/04/23 10:29:26;;;;;;;0.50;0.30;;;19.90;99.70;;;;;;5073664;28;20436;-79
2023/04/23 10:31:55;;;;;;;0.50;0.30;;;20.10;99.90;;;;;;5073532;28;20478;-78
2023/04/23 10:34:27;;;;;;;1.77;1.10;;;20.50;99.90;;;;;;5074054;28;20947;-78
2023/04/23 10:36:55;;;;;;;0.53;0.50;;;20.20;97.30;;;;;;5073932;28;20468;-80
2023/04/23 10:39:24;;;;;;;0.50;0.47;;;19.80;99.90;;;;;;5073779;28;20502;-78
2023/04/23 10:41:54;;;;;;;0.67;0.67;;;20.30;97.10;;;;;;5073639;28;20436;-79
2023/04/23 10:44:21;;;;;;;0.80;0.60;;;21.00;94.40;;;;;;5072701;28;20444;-80
2023/04/23 10:46:53;;;;;;;0.50;0.30;;;22.00;92.80;;;;;;5073524;28;20476;-80
2023/04/23 10:49:22;;;;;;;0.83;0.83;;;23.00;90.40;;;;;;5073573;28;20457;-80
2023/04/23 10:51:49;;;;;;;0.77;0.77;;;23.60;82.60;;;;;;5057144;28;20439;-79
2023/04/23 10:54:16;;;;;;;0.70;0.70;;;23.30;81.00;;;;;;5072935;28;20957;-79
2023/04/23 10:56:44;;;;;;;2.80;0.80;;;22.80;79.70;;;;;;5071947;28;20538;-79
2023/04/23 10:59:20;;;;;;;0.93;0.93;;;22.10;81.40;;;;;;5074223;28;20446;-79
2023/04/23 11:01:48;;;;;;;1.00;1.00;;;21.30;84.20;;;;;;5073743;28;20444;-80
2023/04/23 11:04:22;;;;;;;0.60;0.40;;;20.40;89.20;;;;;;5073870;28;20447;-80
2023/04/23 11:06:58;;;;;;;0.50;0.40;;;19.80;91.00;;;;;;5057683;28;20475;-80
2023/04/23 11:09:39;;;;;;;0.50;0.40;;;19.60;96.40;;;;;;5073433;28;20440;-80
2023/04/23 11:12:08;;;;;;;1.23;1.17;;;19.10;97.40;;;;;;5074332;28;20446;-80
2023/04/23 11:14:41;;;;;;;0.73;0.70;;;18.70;99.90;;;;;;5073531;28;20484;-80
2023/04/23 11:17:10;;;;;;;1.07;0.73;;;18.00;99.90;;;;;;5073797;28;20463;-80
2023/04/23 11:19:38;;;;;;;1.27;1.27;;;17.30;99.90;;;;;;5073032;28;20444;-80
2023/04/23 11:22:07;;;;;;;0.50;0.40;;;16.80;99.90;;;;;;5073329;28;20447;-78
2023/04/23 11:24:40;;;;;;;0.70;0.63;;;16.50;99.90;;;;;;5073362;28;20444;-79
2023/04/23 11:27:09;;;;;;;0.50;0.40;;;16.30;99.90;;;;;;5073745;28;20468;-80
2023/04/23 11:29:39;;;;;;;0.50;0.30;;;16.20;99.90;;;;;;5074274;28;20475;-80
2023/04/23 11:32:09;;;;;;;0.50;0.40;;;16.20;99.90;;;;;;5074021;28;20448;-81
2023/04/23 11:34:36;;;;;;;0.50;0.40;;;16.20;99.90;;;;;;5078403;28;20454;-79
2023/04/23 11:37:03;;;;;;;0.60;0.50;;;16.20;99.90;;;;;;5082858;28;20452;-77
2023/04/23 11:39:30;;;;;;;0.90;0.57;;;16.10;99.90;;;;;;5080120;28;20440;-78
2023/04/23 11:42:01;;;;;;;0.50;0.30;;;16.00;99.90;;;;;;5076638;28;20470;-79
2023/04/23 11:44:29;;;;;;;0.93;0.87;;;15.90;99.90;;;;;;5075105;28;20456;-80
2023/04/23 11:47:00;;;;;;;2.00;1.23;;;15.90;99.90;;;;;;5074887;28;20832;-79
2023/04/23 11:49:27;;;;;;;0.50;0.40;;;15.80;99.90;;;;;;5073468;28;20479;-79
2023/04/23 11:51:54;;;;;;;4.03;0.50;;;16.10;99.90;;;;;;5073705;28;20441;-80
2023/04/23 11:54:26;;;;;;;0.60;0.60;;;16.40;99.90;;;;;;5073604;28;20444;-80
2023/04/23 11:56:53;;;;;;;0.50;0.30;;;16.90;99.90;;;;;;5074147;28;20551;-80
2023/04/23 11:59:20;;;;;;;0.50;0.30;;;17.40;99.90;;;;;;5073585;28;20444;-80
2023/04/23 12:01:49;;;;;;;0.50;0.30;;;18.10;99.90;;;;;;5073330;28;20531;-81
2023/04/23 12:04:20;;;;;;;0.50;0.40;;;18.70;99.90;;;;;;5074773;28;20838;-79
2023/04/23 12:06:49;;;;;;;0.50;0.30;;;19.10;99.90;;;;;;5074197;28;20979;-79
2023/04/23 12:09:17;;;;;;;0.90;0.80;;;19.40;99.90;;;;;;5077464;28;20501;-80
2023/04/23 12:11:45;;;;;;;0.60;0.60;;;19.90;99.90;;;;;;5077674;28;20444;-77
2023/04/23 12:14:15;;;;;;;0.50;0.40;;;20.30;99.90;;;;;;5077721;28;20440;-79
2023/04/23 12:16:43;;;;;;;0.90;0.50;;;20.30;99.70;;;;;;5077039;28;20857;-79
2023/04/23 12:19:12;;;;;;;0.60;0.50;;;20.40;97.40;;;;;;5076985;28;20536;-79
2023/04/23 12:21:53;;;;;;;0.50;0.30;;;20.60;94.00;;;;;;5077777;28;20486;-79
2023/04/23 12:24:21;;;;;;;0.50;0.40;;;20.50;94.50;;;;;;5077272;28;20446;-79
2023/04/23 12:26:53;;;;;;;0.50;0.37;;;20.50;95.00;;;;;;5077076;28;20502;-79
2023/04/23 12:29:20;;;;;;;0.50;0.40;;;20.30;97.40;;;;;;5077307;28;20440;-78
2023/04/23 12:31:48;;;;;;;0.50;0.40;;;20.40;99.90;;;;;;5076919;28;20819;-78
2023/04/23 12:34:16;;;;;;;0.70;0.60;;;20.40;96.10;;;;;;5077371;28;20455;-80
2023/04/23 12:36:45;;;;;;;0.50;0.30;;;20.10;96.60;;;;;;5077265;28;20990;-79
2023/04/23 12:39:22;;;;;;;1.10;0.80;;;19.70;98.60;;;;;;5077079;28;20452;-79
2023/04/23 12:41:50;;;;;;;0.50;0.40;;;19.40;99.90;;;;;;5076713;28;20444;-79
2023/04/23 12:44:17;;;;;;;0.50;0.40;;;19.80;99.90;;;;;;5076813;28;20577;-79
2023/04/23 12:46:44;;;;;;;0.50;0.40;;;20.50;99.90;;;;;;5076592;28;20468;-79
2023/04/23 12:49:11;;;;;;;1.00;0.63;;;21.20;92.60;;;;;;5127380;22;20489;-79
2023/04/23 12:51:38;;;;;;;0.70;0.70;;;21.70;92.80;;;;;;5075198;28;20451;-81
2023/04/23 12:54:05;;;;;;;0.50;0.40;;;22.30;88.70;;;;;;5076349;28;20454;-79